aviador You're here:

LFMH Decoded Metar

ST.-ETIENNE in FRANCE
Report Time2018-06-17 23:30:00
UTC Time2018-06-17 23:44:19
Flight Rules vfr VFR
Wind140° at 02 kt
W.Decomp.*RWY 18: 1.5 kt HW 1.3 kt LCW
W.Rank140° ranks 8
Current wind is below 140° avg. (5.0)
Visibility9999 m
Phenomena:N/A
Clouds:Broken 049 Hf
Expected CloudBase > 1,200 ft AGL from Temp-Dew spread
Ceiling4,900 ft
Temp13°C (ISA +1)
Dew Point10°C (82% RH)
AAT12.3°C
QNH1023 hPa
Density Alt1,227 ft
Elevation1,319 ft
Report Wrong Elevation
Raw Report
LFMH 172330Z AUTO 14002KT 9999 BKN049 13/10 Q1023=

Extra information for LFMH:More info

Metar Taf Metar & Taf Last 4 Metars F.Rules Stats Wind Profile Meteogram Temp Stats Airport Information Weather charts Add Link Nearby VenuesMetar ALERT Operation Metar Decoded Social comments